Sampatiki — D5DJ8 — position and weather

sailwx.info

Track history (hours):
 
Tides and Currents Weather Stations Pressure Air Temp Water Temp Dewpoint Dewpoint Depression Visibility Wind Speed Wind Dir Waves Ship Positions

Sampatiki

Last reported at 2017-Sep-19 11:30 UTC. Time now 2017-Sep-19 11:54 UTC.
Position N 44°20' E 028°40'.

Length 100 m; draft 3.6 m.

Type: Ship (hazmat cat A). MMSI: 636015901.

Date/timePositionNaut miles runAvg speedWind from/ knotsBaromVisibWave heightAir tempDewpointWater temp
2017-Sep-19 11:30N 44°20' E 028°40'0 0.0
2017-Sep-19 11:00N 44°20' E 028°40'0 0.0
2017-Sep-19 10:30N 44°20' E 028°40'0 0.0
2017-Sep-19 09:57N 44°20' E 028°40'0 0.0
2017-Sep-19 09:30N 44°20' E 028°40'0 0.0
2017-Sep-19 09:00N 44°20' E 028°40'0 0.0
2017-Sep-19 08:30N 44°20' E 028°40'0 0.0
2017-Sep-19 08:00N 44°20' E 028°40'0 0.0
2017-Sep-19 07:30N 44°20' E 028°40'0 0.0
2017-Sep-19 07:00N 44°20' E 028°40'0 0.0
2017-Sep-19 06:30N 44°20' E 028°40'0 0.0
2017-Sep-19 06:00N 44°20' E 028°40'0 0.0
2017-Sep-19 05:30N 44°20' E 028°40'0 0.0
2017-Sep-19 05:00N 44°20' E 028°40'0 0.0
2017-Sep-19 04:30N 44°20' E 028°40'0 0.0
2017-Sep-19 04:00N 44°20' E 028°40'0 0.0
2017-Sep-19 03:30N 44°20' E 028°40'0 0.0
2017-Sep-19 03:00N 44°20' E 028°40'0 0.0
2017-Sep-19 02:30N 44°20' E 028°40'0 0.0
2017-Sep-19 02:00N 44°20' E 028°40'0 0.0
2017-Sep-19 01:30N 44°20' E 028°40'0 0.0
2017-Sep-19 01:00N 44°20' E 028°40'0 0.0
2017-Sep-19 00:24N 44°20' E 028°40'0 0.0
2017-Sep-19 00:00N 44°20' E 028°40'0 0.0
2017-Sep-18 23:30N 44°20' E 028°40'0 0.0
2017-Sep-18 23:00N 44°20' E 028°40'0 0.0
2017-Sep-18 22:30N 44°20' E 028°40'0 0.0
2017-Sep-18 22:00N 44°20' E 028°40'0 0.3
2017-Sep-18 21:30N 44°20' E 028°40'3 5.8
2017-Sep-18 21:00N 44°17' E 028°43'4 8.2
2017-Sep-18 20:30N 44°15' E 028°47'510.3
2017-Sep-18 20:00N 44°11' E 028°52'5 9.1
2017-Sep-18 19:30N 44°07' E 028°53'611.6
2017-Sep-18 19:00N 44°01' E 028°54'612.0
2017-Sep-18 18:30N 43°55' E 028°54'611.7
2017-Sep-18 18:00N 43°49' E 028°55'711.5
2017-Sep-18 17:26N 43°42' E 028°56'511.3
2017-Sep-18 17:00N 43°38' E 028°56'611.5
2017-Sep-18 16:30N 43°32' E 028°57'611.6
2017-Sep-18 16:00N 43°26' E 028°58'611.4
2017-Sep-18 15:30N 43°21' E 028°58'611.2
2017-Sep-18 14:59N 43°15' E 028°59'811.1
2017-Sep-18 14:15N 43°07' E 029°00'311.0
2017-Sep-18 14:00N 43°04' E 029°00'611.0
2017-Sep-18 13:26N 42°58' E 029°01'510.8
2017-Sep-18 13:00N 42°53' E 029°02'9211.1
2017-Sep-18 04:47N 41°22' E 029°13'310.9
2017-Sep-18 04:30N 41°19' E 029°12'611.3
2017-Sep-18 04:00N 41°14' E 029°08'21 8.1
2017-Sep-18 01:25N 40°56' E 028°53'37 1.0
2017-Sep-16 11:18N 40°46' E 028°06'270 9.9
2017-Sep-15 08:03N 37°38' E 023°56'111.6
2017-Sep-15 07:56N 37°38' E 023°54'511.6
2017-Sep-15 07:30N 37°38' E 023°48'510.5
2017-Sep-15 07:00N 37°40' E 023°42'611.7
2017-Sep-15 06:31N 37°46' E 023°39'611.3
2017-Sep-15 06:01N 37°51' E 023°37'5 9.5
2017-Sep-15 05:31N 37°56' E 023°35'2 3.5
2017-Sep-15 04:59N 37°58' E 023°35'0 0.0
2017-Sep-15 04:29N 37°58' E 023°35'0 0.0
2017-Sep-15 03:56N 37°58' E 023°35'0 0.0
2017-Sep-15 03:29N 37°58' E 023°35'0 0.0
2017-Sep-15 02:59N 37°58' E 023°35'0 0.0
2017-Sep-15 02:29N 37°58' E 023°35'0 0.0
2017-Sep-15 01:59N 37°58' E 023°35'0 0.0
2017-Sep-15 01:29N 37°58' E 023°35'0 0.0
2017-Sep-15 00:53N 37°58' E 023°35'0 0.0
2017-Sep-15 00:29N 37°58' E 023°35'0 0.0
2017-Sep-14 23:50N 37°58' E 023°35'0 0.0
2017-Sep-14 23:26N 37°58' E 023°35'0 0.0
2017-Sep-14 22:53N 37°58' E 023°35'0 0.0
2017-Sep-14 22:29N 37°58' E 023°35'0 0.0
2017-Sep-14 21:59N 37°58' E 023°35'0 0.0
2017-Sep-14 21:29N 37°58' E 023°35'0 0.0
2017-Sep-14 20:56N 37°58' E 023°35'0 0.0
2017-Sep-14 20:29N 37°58' E 023°35'0 0.0
2017-Sep-14 19:59N 37°58' E 023°35'0 0.0
2017-Sep-14 19:26N 37°58' E 023°35'0 0.0
2017-Sep-14 18:59N 37°58' E 023°35'0 0.0
2017-Sep-14 18:29N 37°58' E 023°35'0 0.0
2017-Sep-14 17:59N 37°58' E 023°35'0 0.0
2017-Sep-14 17:23N 37°58' E 023°35'0 0.0
2017-Sep-14 16:59N 37°58' E 023°35'0 0.0
2017-Sep-14 16:29N 37°58' E 023°35'0 0.0
2017-Sep-14 15:53N 37°58' E 023°35'0 0.0
2017-Sep-14 15:29N 37°58' E 023°35'0 0.0
2017-Sep-14 14:59N 37°58' E 023°35'0 0.0
2017-Sep-14 14:29N 37°58' E 023°35'0 0.0
2017-Sep-14 13:59N 37°58' E 023°35'0 0.0
2017-Sep-14 13:29N 37°58' E 023°35'0 0.0
2017-Sep-14 12:59N 37°58' E 023°35'0 0.0
2017-Sep-14 12:29N 37°58' E 023°35'0 0.0
2017-Sep-14 11:59N 37°58' E 023°35'0 0.0
2017-Sep-14 11:26N 37°58' E 023°35'0 0.0
2017-Sep-14 10:59N 37°58' E 023°35'0 0.0
2017-Sep-14 10:29N 37°58' E 023°35'0 0.0
2017-Sep-14 09:59N 37°58' E 023°35'0 0.0
2017-Sep-14 09:29N 37°58' E 023°35'0 0.0
2017-Sep-14 08:59N 37°58' E 023°35'0 0.0
2017-Sep-14 08:29N 37°58' E 023°35'0 0.0
2017-Sep-14 07:59N 37°58' E 023°35'0 0.0
2017-Sep-14 07:29N 37°58' E 023°35'0 0.0
2017-Sep-14 06:56N 37°58' E 023°35'0 0.0
2017-Sep-14 06:29N 37°58' E 023°35'0 0.0
2017-Sep-14 05:59N 37°58' E 023°35'0 0.0
2017-Sep-14 05:26N 37°58' E 023°35'0 0.0
2017-Sep-13 17:28N 37°58' E 023°35'2 3.6
2017-Sep-13 17:00N 37°56' E 023°35'1 2.0
2017-Sep-13 16:30N 37°55' E 023°34'1 2.5
2017-Sep-13 16:00N 37°54' E 023°32'0 0.1
2017-Sep-13 15:29N 37°54' E 023°33'0 0.0
2017-Sep-13 14:59N 37°54' E 023°33'0 0.1
2017-Sep-13 14:29N 37°54' E 023°33'0 0.0
2017-Sep-13 13:59N 37°54' E 023°33'0 0.1
2017-Sep-13 13:29N 37°55' E 023°33'0 0.1
2017-Sep-13 12:59N 37°54' E 023°33'0 0.0
2017-Sep-13 12:26N 37°54' E 023°33'0 0.0
2017-Sep-13 11:59N 37°54' E 023°33'0 0.1
2017-Sep-13 11:29N 37°54' E 023°33'0 0.0
2017-Sep-13 10:56N 37°54' E 023°33'0 0.0
2017-Sep-13 10:29N 37°54' E 023°33'0 0.0
2017-Sep-13 09:59N 37°54' E 023°33'0 0.0
2017-Sep-13 09:29N 37°54' E 023°33'0 0.0
2017-Sep-13 08:59N 37°54' E 023°33'0 0.0
2017-Sep-13 08:29N 37°54' E 023°33'0 0.0
2017-Sep-13 07:59N 37°54' E 023°33'0 0.0
2017-Sep-13 07:29N 37°54' E 023°33'0 0.1
2017-Sep-13 06:59N 37°54' E 023°33'0 0.0
2017-Sep-13 06:29N 37°54' E 023°33'0 0.0
2017-Sep-13 05:59N 37°54' E 023°33'0 0.1
2017-Sep-13 05:29N 37°54' E 023°32'0 0.2
2017-Sep-13 04:59N 37°54' E 023°33'0 0.0
2017-Sep-13 04:23N 37°54' E 023°33'0 0.0
2017-Sep-13 03:59N 37°54' E 023°33'0 0.0
2017-Sep-13 03:29N 37°54' E 023°33'0 0.0
2017-Sep-13 02:59N 37°54' E 023°33'0 0.0
2017-Sep-13 02:29N 37°54' E 023°33'0 0.1
2017-Sep-13 01:59N 37°54' E 023°33'0 0.0
2017-Sep-13 01:29N 37°54' E 023°33'0 0.0
2017-Sep-13 00:59N 37°54' E 023°33'0 0.0
2017-Sep-13 00:23N 37°54' E 023°33'0 0.0
2017-Sep-12 23:59N 37°54' E 023°33'0 0.0
2017-Sep-12 23:29N 37°54' E 023°33'0 0.0
2017-Sep-12 22:47N 37°54' E 023°33'0 0.0
2017-Sep-12 22:26N 37°54' E 023°33'0 0.0
2017-Sep-12 21:59N 37°54' E 023°33'0 0.0
2017-Sep-12 21:29N 37°54' E 023°33'0 0.0
2017-Sep-12 20:59N 37°54' E 023°33'0 0.0
2017-Sep-12 20:29N 37°54' E 023°33'0 0.0
2017-Sep-12 19:59N 37°54' E 023°33'0 0.0
2017-Sep-12 19:29N 37°54' E 023°33'0 0.0
2017-Sep-12 18:59N 37°54' E 023°33'0 0.1
2017-Sep-12 18:29N 37°54' E 023°33'0 0.1
2017-Sep-12 17:59N 37°54' E 023°33'0 0.2
2017-Sep-12 17:29N 37°55' E 023°32'0 0.0
2017-Sep-12 16:59N 37°55' E 023°32'0 0.0
2017-Sep-12 16:29N 37°55' E 023°32'0 0.0
2017-Sep-12 15:59N 37°55' E 023°32'0 0.0
2017-Sep-12 15:29N 37°55' E 023°32'0 0.0
2017-Sep-12 14:59N 37°55' E 023°32'0 0.0
2017-Sep-12 14:29N 37°55' E 023°32'0 0.0
2017-Sep-12 13:56N 37°55' E 023°32'0 0.1
2017-Sep-12 13:29N 37°55' E 023°32'0 0.0
2017-Sep-12 12:59N 37°55' E 023°33'0 0.0
2017-Sep-12 12:29N 37°55' E 023°33'0 0.0
2017-Sep-12 11:59N 37°55' E 023°32'0 0.0
2017-Sep-12 11:29N 37°55' E 023°32'0 0.0
2017-Sep-12 10:59N 37°55' E 023°32'0 0.0
2017-Sep-12 10:29N 37°55' E 023°32'0 0.0
2017-Sep-12 09:59N 37°55' E 023°33'0 0.0
2017-Sep-12 09:29N 37°55' E 023°33'0 0.0
2017-Sep-12 08:59N 37°55' E 023°33'0 0.0
2017-Sep-12 08:29N 37°54' E 023°33'0 0.0
2017-Sep-12 07:59N 37°54' E 023°33'0 0.0
2017-Sep-12 07:29N 37°55' E 023°33'0 0.0
2017-Sep-12 06:59N 37°54' E 023°33'0 0.0
2017-Sep-12 06:26N 37°54' E 023°33'0 0.0
2017-Sep-12 05:59N 37°54' E 023°33'0 0.0
2017-Sep-12 05:29N 37°54' E 023°33'0 0.0
2017-Sep-12 04:59N 37°54' E 023°33'0 0.1
2017-Sep-12 04:29N 37°55' E 023°33'0 0.1
2017-Sep-12 03:59N 37°54' E 023°33'0 0.1
2017-Sep-12 03:29N 37°54' E 023°33'0 0.0
2017-Sep-12 02:59N 37°54' E 023°33'0 0.0
2017-Sep-12 02:29N 37°54' E 023°33'0 0.0
2017-Sep-12 01:59N 37°54' E 023°33'0 0.0
2017-Sep-12 01:29N 37°54' E 023°33'0 0.0
2017-Sep-12 00:59N 37°54' E 023°33'0 0.0
2017-Sep-12 00:29N 37°54' E 023°33'0 0.0
2017-Sep-11 23:59N 37°54' E 023°33'0 0.0
2017-Sep-11 23:29N 37°54' E 023°33'0 0.0
2017-Sep-11 22:59N 37°54' E 023°33'0 0.0
2017-Sep-11 22:29N 37°54' E 023°33'0 0.2
2017-Sep-11 21:59N 37°55' E 023°32'0 0.0
2017-Sep-11 21:29N 37°55' E 023°32'0 0.0
2017-Sep-11 20:59N 37°55' E 023°32'0 0.0
2017-Sep-11 20:29N 37°55' E 023°32'0 0.0
2017-Sep-11 19:59N 37°55' E 023°32'0 0.0
2017-Sep-11 19:30N 37°55' E 023°32'2 3.7
2017-Sep-11 19:00N 37°54' E 023°35'5 9.6
2017-Sep-11 18:30N 37°51' E 023°39'510.4
2017-Sep-11 18:00N 37°46' E 023°42'510.2
2017-Sep-11 17:30N 37°42' E 023°45'222 9.3
2017-Sep-10 17:44N 40°29' E 026°52'74 9.8
2017-Sep-10 10:07N 40°52' E 028°25'210.3
2017-Sep-10 09:57N 40°52' E 028°28'1510.3
2017-Sep-10 08:32N 40°55' E 028°47'110.4
2017-Sep-10 08:25N 40°55' E 028°48'510.0
2017-Sep-10 07:52N 40°57' E 028°55'3 7.7
2017-Sep-10 07:29N 40°58' E 028°58'  
Track history (hours):
 
Tides and Currents Weather Stations Pressure Air Temp Water Temp Dewpoint Dewpoint Depression Visibility Wind Speed Wind Dir Waves Ship Positions

Sampatiki

Last reported at 2017-Sep-19 11:30 UTC. Time now 2017-Sep-19 11:54 UTC.
Position N 44°20' E 028°40'.

Length 100 m; draft 3.6 m.

Type: Ship (hazmat cat A). MMSI: 636015901.

Date/timePositionNaut miles runAvg speedWind from/ knotsBaromVisibWave heightAir tempDewpointWater temp
2017-Sep-19 11:30N 44°20' E 028°40'0 0.0
2017-Sep-19 11:00N 44°20' E 028°40'0 0.0
2017-Sep-19 10:30N 44°20' E 028°40'0 0.0
2017-Sep-19 09:57N 44°20' E 028°40'0 0.0
2017-Sep-19 09:30N 44°20' E 028°40'0 0.0
2017-Sep-19 09:00N 44°20' E 028°40'0 0.0
2017-Sep-19 08:30N 44°20' E 028°40'0 0.0
2017-Sep-19 08:00N 44°20' E 028°40'0 0.0
2017-Sep-19 07:30N 44°20' E 028°40'0 0.0
2017-Sep-19 07:00N 44°20' E 028°40'0 0.0
2017-Sep-19 06:30N 44°20' E 028°40'0 0.0
2017-Sep-19 06:00N 44°20' E 028°40'0 0.0
2017-Sep-19 05:30N 44°20' E 028°40'0 0.0
2017-Sep-19 05:00N 44°20' E 028°40'0 0.0
2017-Sep-19 04:30N 44°20' E 028°40'0 0.0
2017-Sep-19 04:00N 44°20' E 028°40'0 0.0
2017-Sep-19 03:30N 44°20' E 028°40'0 0.0
2017-Sep-19 03:00N 44°20' E 028°40'0 0.0
2017-Sep-19 02:30N 44°20' E 028°40'0 0.0
2017-Sep-19 02:00N 44°20' E 028°40'0 0.0
2017-Sep-19 01:30N 44°20' E 028°40'0 0.0
2017-Sep-19 01:00N 44°20' E 028°40'0 0.0
2017-Sep-19 00:24N 44°20' E 028°40'0 0.0
2017-Sep-19 00:00N 44°20' E 028°40'0 0.0
2017-Sep-18 23:30N 44°20' E 028°40'0 0.0
2017-Sep-18 23:00N 44°20' E 028°40'0 0.0
2017-Sep-18 22:30N 44°20' E 028°40'0 0.0
2017-Sep-18 22:00N 44°20' E 028°40'0 0.3
2017-Sep-18 21:30N 44°20' E 028°40'3 5.8
2017-Sep-18 21:00N 44°17' E 028°43'4 8.2
2017-Sep-18 20:30N 44°15' E 028°47'510.3
2017-Sep-18 20:00N 44°11' E 028°52'5 9.1
2017-Sep-18 19:30N 44°07' E 028°53'611.6
2017-Sep-18 19:00N 44°01' E 028°54'612.0
2017-Sep-18 18:30N 43°55' E 028°54'611.7
2017-Sep-18 18:00N 43°49' E 028°55'711.5
2017-Sep-18 17:26N 43°42' E 028°56'511.3
2017-Sep-18 17:00N 43°38' E 028°56'611.5
2017-Sep-18 16:30N 43°32' E 028°57'611.6
2017-Sep-18 16:00N 43°26' E 028°58'611.4
2017-Sep-18 15:30N 43°21' E 028°58'611.2
2017-Sep-18 14:59N 43°15' E 028°59'811.1
2017-Sep-18 14:15N 43°07' E 029°00'311.0
2017-Sep-18 14:00N 43°04' E 029°00'611.0
2017-Sep-18 13:26N 42°58' E 029°01'510.8
2017-Sep-18 13:00N 42°53' E 029°02'9211.1
2017-Sep-18 04:47N 41°22' E 029°13'310.9
2017-Sep-18 04:30N 41°19' E 029°12'611.3
2017-Sep-18 04:00N 41°14' E 029°08'21 8.1
2017-Sep-18 01:25N 40°56' E 028°53'37 1.0
2017-Sep-16 11:18N 40°46' E 028°06'270 9.9
2017-Sep-15 08:03N 37°38' E 023°56'111.6
2017-Sep-15 07:56N 37°38' E 023°54'511.6
2017-Sep-15 07:30N 37°38' E 023°48'510.5
2017-Sep-15 07:00N 37°40' E 023°42'611.7
2017-Sep-15 06:31N 37°46' E 023°39'611.3
2017-Sep-15 06:01N 37°51' E 023°37'5 9.5
2017-Sep-15 05:31N 37°56' E 023°35'2 3.5
2017-Sep-15 04:59N 37°58' E 023°35'0 0.0
2017-Sep-15 04:29N 37°58' E 023°35'0 0.0
2017-Sep-15 03:56N 37°58' E 023°35'0 0.0
2017-Sep-15 03:29N 37°58' E 023°35'0 0.0
2017-Sep-15 02:59N 37°58' E 023°35'0 0.0
2017-Sep-15 02:29N 37°58' E 023°35'0 0.0
2017-Sep-15 01:59N 37°58' E 023°35'0 0.0
2017-Sep-15 01:29N 37°58' E 023°35'0 0.0
2017-Sep-15 00:53N 37°58' E 023°35'0 0.0
2017-Sep-15 00:29N 37°58' E 023°35'0 0.0
2017-Sep-14 23:50N 37°58' E 023°35'0 0.0
2017-Sep-14 23:26N 37°58' E 023°35'0 0.0
2017-Sep-14 22:53N 37°58' E 023°35'0 0.0
2017-Sep-14 22:29N 37°58' E 023°35'0 0.0
2017-Sep-14 21:59N 37°58' E 023°35'0 0.0
2017-Sep-14 21:29N 37°58' E 023°35'0 0.0
2017-Sep-14 20:56N 37°58' E 023°35'0 0.0
2017-Sep-14 20:29N 37°58' E 023°35'0 0.0
2017-Sep-14 19:59N 37°58' E 023°35'0 0.0
2017-Sep-14 19:26N 37°58' E 023°35'0 0.0
2017-Sep-14 18:59N 37°58' E 023°35'0 0.0
2017-Sep-14 18:29N 37°58' E 023°35'0 0.0
2017-Sep-14 17:59N 37°58' E 023°35'0 0.0
2017-Sep-14 17:23N 37°58' E 023°35'0 0.0
2017-Sep-14 16:59N 37°58' E 023°35'0 0.0
2017-Sep-14 16:29N 37°58' E 023°35'0 0.0
2017-Sep-14 15:53N 37°58' E 023°35'0 0.0
2017-Sep-14 15:29N 37°58' E 023°35'0 0.0
2017-Sep-14 14:59N 37°58' E 023°35'0 0.0
2017-Sep-14 14:29N 37°58' E 023°35'0 0.0
2017-Sep-14 13:59N 37°58' E 023°35'0 0.0
2017-Sep-14 13:29N 37°58' E 023°35'0 0.0
2017-Sep-14 12:59N 37°58' E 023°35'0 0.0
2017-Sep-14 12:29N 37°58' E 023°35'0 0.0
2017-Sep-14 11:59N 37°58' E 023°35'0 0.0
2017-Sep-14 11:26N 37°58' E 023°35'0 0.0
2017-Sep-14 10:59N 37°58' E 023°35'0 0.0
2017-Sep-14 10:29N 37°58' E 023°35'0 0.0
2017-Sep-14 09:59N 37°58' E 023°35'0 0.0
2017-Sep-14 09:29N 37°58' E 023°35'0 0.0
2017-Sep-14 08:59N 37°58' E 023°35'0 0.0
2017-Sep-14 08:29N 37°58' E 023°35'0 0.0
2017-Sep-14 07:59N 37°58' E 023°35'0 0.0
2017-Sep-14 07:29N 37°58' E 023°35'0 0.0
2017-Sep-14 06:56N 37°58' E 023°35'0 0.0
2017-Sep-14 06:29N 37°58' E 023°35'0 0.0
2017-Sep-14 05:59N 37°58' E 023°35'0 0.0
2017-Sep-14 05:26N 37°58' E 023°35'0 0.0
2017-Sep-13 17:28N 37°58' E 023°35'2 3.6
2017-Sep-13 17:00N 37°56' E 023°35'1 2.0
2017-Sep-13 16:30N 37°55' E 023°34'1 2.5
2017-Sep-13 16:00N 37°54' E 023°32'0 0.1
2017-Sep-13 15:29N 37°54' E 023°33'0 0.0
2017-Sep-13 14:59N 37°54' E 023°33'0 0.1
2017-Sep-13 14:29N 37°54' E 023°33'0 0.0
2017-Sep-13 13:59N 37°54' E 023°33'0 0.1
2017-Sep-13 13:29N 37°55' E 023°33'0 0.1
2017-Sep-13 12:59N 37°54' E 023°33'0 0.0
2017-Sep-13 12:26N 37°54' E 023°33'0 0.0
2017-Sep-13 11:59N 37°54' E 023°33'0 0.1
2017-Sep-13 11:29N 37°54' E 023°33'0 0.0
2017-Sep-13 10:56N 37°54' E 023°33'0 0.0
2017-Sep-13 10:29N 37°54' E 023°33'0 0.0
2017-Sep-13 09:59N 37°54' E 023°33'0 0.0
2017-Sep-13 09:29N 37°54' E 023°33'0 0.0
2017-Sep-13 08:59N 37°54' E 023°33'0 0.0
2017-Sep-13 08:29N 37°54' E 023°33'0 0.0
2017-Sep-13 07:59N 37°54' E 023°33'0 0.0
2017-Sep-13 07:29N 37°54' E 023°33'0 0.1
2017-Sep-13 06:59N 37°54' E 023°33'0 0.0
2017-Sep-13 06:29N 37°54' E 023°33'0 0.0
2017-Sep-13 05:59N 37°54' E 023°33'0 0.1
2017-Sep-13 05:29N 37°54' E 023°32'0 0.2
2017-Sep-13 04:59N 37°54' E 023°33'0 0.0
2017-Sep-13 04:23N 37°54' E 023°33'0 0.0
2017-Sep-13 03:59N 37°54' E 023°33'0 0.0
2017-Sep-13 03:29N 37°54' E 023°33'0 0.0
2017-Sep-13 02:59N 37°54' E 023°33'0 0.0
2017-Sep-13 02:29N 37°54' E 023°33'0 0.1
2017-Sep-13 01:59N 37°54' E 023°33'0 0.0
2017-Sep-13 01:29N 37°54' E 023°33'0 0.0
2017-Sep-13 00:59N 37°54' E 023°33'0 0.0
2017-Sep-13 00:23N 37°54' E 023°33'0 0.0
2017-Sep-12 23:59N 37°54' E 023°33'0 0.0
2017-Sep-12 23:29N 37°54' E 023°33'0 0.0
2017-Sep-12 22:47N 37°54' E 023°33'0 0.0
2017-Sep-12 22:26N 37°54' E 023°33'0 0.0
2017-Sep-12 21:59N 37°54' E 023°33'0 0.0
2017-Sep-12 21:29N 37°54' E 023°33'0 0.0
2017-Sep-12 20:59N 37°54' E 023°33'0 0.0
2017-Sep-12 20:29N 37°54' E 023°33'0 0.0
2017-Sep-12 19:59N 37°54' E 023°33'0 0.0
2017-Sep-12 19:29N 37°54' E 023°33'0 0.0
2017-Sep-12 18:59N 37°54' E 023°33'0 0.1
2017-Sep-12 18:29N 37°54' E 023°33'0 0.1
2017-Sep-12 17:59N 37°54' E 023°33'0 0.2
2017-Sep-12 17:29N 37°55' E 023°32'0 0.0
2017-Sep-12 16:59N 37°55' E 023°32'0 0.0
2017-Sep-12 16:29N 37°55' E 023°32'0 0.0
2017-Sep-12 15:59N 37°55' E 023°32'0 0.0
2017-Sep-12 15:29N 37°55' E 023°32'0 0.0
2017-Sep-12 14:59N 37°55' E 023°32'0 0.0
2017-Sep-12 14:29N 37°55' E 023°32'0 0.0
2017-Sep-12 13:56N 37°55' E 023°32'0 0.1
2017-Sep-12 13:29N 37°55' E 023°32'0 0.0
2017-Sep-12 12:59N 37°55' E 023°33'0 0.0
2017-Sep-12 12:29N 37°55' E 023°33'0 0.0
2017-Sep-12 11:59N 37°55' E 023°32'0 0.0
2017-Sep-12 11:29N 37°55' E 023°32'0 0.0
2017-Sep-12 10:59N 37°55' E 023°32'0 0.0
2017-Sep-12 10:29N 37°55' E 023°32'0 0.0
2017-Sep-12 09:59N 37°55' E 023°33'0 0.0
2017-Sep-12 09:29N 37°55' E 023°33'0 0.0
2017-Sep-12 08:59N 37°55' E 023°33'0 0.0
2017-Sep-12 08:29N 37°54' E 023°33'0 0.0
2017-Sep-12 07:59N 37°54' E 023°33'0 0.0
2017-Sep-12 07:29N 37°55' E 023°33'0 0.0
2017-Sep-12 06:59N 37°54' E 023°33'0 0.0
2017-Sep-12 06:26N 37°54' E 023°33'0 0.0
2017-Sep-12 05:59N 37°54' E 023°33'0 0.0
2017-Sep-12 05:29N 37°54' E 023°33'0 0.0
2017-Sep-12 04:59N 37°54' E 023°33'0 0.1
2017-Sep-12 04:29N 37°55' E 023°33'0 0.1
2017-Sep-12 03:59N 37°54' E 023°33'0 0.1
2017-Sep-12 03:29N 37°54' E 023°33'0 0.0
2017-Sep-12 02:59N 37°54' E 023°33'0 0.0
2017-Sep-12 02:29N 37°54' E 023°33'0 0.0
2017-Sep-12 01:59N 37°54' E 023°33'0 0.0
2017-Sep-12 01:29N 37°54' E 023°33'0 0.0
2017-Sep-12 00:59N 37°54' E 023°33'0 0.0
2017-Sep-12 00:29N 37°54' E 023°33'0 0.0
2017-Sep-11 23:59N 37°54' E 023°33'0 0.0
2017-Sep-11 23:29N 37°54' E 023°33'0 0.0
2017-Sep-11 22:59N 37°54' E 023°33'0 0.0
2017-Sep-11 22:29N 37°54' E 023°33'0 0.2
2017-Sep-11 21:59N 37°55' E 023°32'0 0.0
2017-Sep-11 21:29N 37°55' E 023°32'0 0.0
2017-Sep-11 20:59N 37°55' E 023°32'0 0.0
2017-Sep-11 20:29N 37°55' E 023°32'0 0.0
2017-Sep-11 19:59N 37°55' E 023°32'0 0.0
2017-Sep-11 19:30N 37°55' E 023°32'2 3.7
2017-Sep-11 19:00N 37°54' E 023°35'5 9.6
2017-Sep-11 18:30N 37°51' E 023°39'510.4
2017-Sep-11 18:00N 37°46' E 023°42'510.2
2017-Sep-11 17:30N 37°42' E 023°45'222 9.3
2017-Sep-10 17:44N 40°29' E 026°52'74 9.8
2017-Sep-10 10:07N 40°52' E 028°25'210.3
2017-Sep-10 09:57N 40°52' E 028°28'1510.3
2017-Sep-10 08:32N 40°55' E 028°47'110.4
2017-Sep-10 08:25N 40°55' E 028°48'510.0
2017-Sep-10 07:52N 40°57' E 028°55'3 7.7
2017-Sep-10 07:29N 40°58' E 028°58'  

Dump ship's entire track history